Time;durP1;ratioP1;P1;durP2;ratioP2;P2;SDS_P1;SDS_P2;PMS_P1;PMS_P2;Temp;Humidity;BMP_temperature;BMP_pressure;BME280_temperature;BME280_humidity;BME280_pressure;Samples;Min_cycle;Max_cycle;Signal;HPM_P1;HPM_P2
2021/10/13 00:03:37;;;;;;;16.70;10.80;;;;;;;8.96;66.46;98664.40;234681;1203;138649;-62
2021/10/13 00:08:40;;;;;;;16.60;10.70;;;;;;;8.90;66.69;98664.08;234709;1203;139027;-61
2021/10/13 00:13:44;;;;;;;15.10;10.30;;;;;;;8.88;66.80;98665.81;234450;1204;139461;-66
2021/10/13 00:18:46;;;;;;;15.40;9.70;;;;;;;8.85;66.99;98667.98;234185;1203;138732;-66
2021/10/13 00:23:50;;;;;;;15.00;9.30;;;;;;;8.81;66.91;98672.04;234431;1204;138959;-69
2021/10/13 00:28:53;;;;;;;14.50;9.70;;;;;;;8.79;67.07;98675.60;234675;1204;139191;-70
2021/10/13 00:33:56;;;;;;;17.50;10.90;;;;;;;8.73;67.24;98674.27;234666;1203;138780;-61
2021/10/13 00:38:59;;;;;;;17.50;12.10;;;;;;;8.73;67.46;98675.35;234576;1205;138964;-63
2021/10/13 00:44:02;;;;;;;17.60;11.60;;;;;;;8.75;67.67;98675.80;233550;1203;138583;-67
2021/10/13 00:49:05;;;;;;;18.90;12.90;;;;;;;8.76;67.88;98675.72;234645;1203;138714;-60
2021/10/13 00:54:09;;;;;;;19.10;12.30;;;;;;;8.78;67.92;98677.73;234591;1203;139567;-62
2021/10/13 00:59:12;;;;;;;19.50;11.80;;;;;;;8.85;68.05;98681.06;234487;1203;139116;-67
2021/10/13 01:04:36;;;;;;;17.90;12.40;;;;;;;8.91;68.04;98674.80;234570;1204;139484;-67
2021/10/13 01:09:56;;;;;;;19.40;12.40;;;;;;;8.95;68.05;98673.33;234765;1204;138535;-63
2021/10/13 01:15:13;;;;;;;18.80;13.10;;;;;;;9.02;68.20;98670.96;234673;1204;138897;-63
2021/10/13 01:20:29;;;;;;;20.50;13.30;;;;;;;9.08;68.32;98676.41;234592;1203;139086;-61
2021/10/13 01:25:38;;;;;;;;;;;;;;;9.09;68.22;98678.50;234703;1204;139318;-61
2021/10/13 01:30:51;;;;;;;20.90;13.40;;;;;;;9.09;68.32;98681.34;234537;1203;125758;-61
2021/10/13 01:36:00;;;;;;;18.80;12.40;;;;;;;9.11;68.23;98685.06;234627;1203;138316;-62
2021/10/13 01:41:04;;;;;;;18.70;11.60;;;;;;;9.16;68.42;98683.36;234635;1204;139233;-63
2021/10/13 01:46:08;;;;;;;21.40;13.20;;;;;;;9.23;68.40;98683.10;234732;1204;139456;-64
2021/10/13 01:51:16;;;;;;;23.40;13.80;;;;;;;9.24;68.14;98689.79;234371;1204;138869;-63
2021/10/13 01:56:24;;;;;;;22.20;13.80;;;;;;;9.16;68.15;98693.61;234630;1204;138457;-68
2021/10/13 02:01:30;;;;;;;23.00;15.30;;;;;;;9.13;68.29;98695.08;234422;1204;139333;-62
2021/10/13 02:06:36;;;;;;;23.80;14.60;;;;;;;9.12;68.38;98700.56;234603;1203;139357;-67
2021/10/13 02:11:40;;;;;;;25.20;15.30;;;;;;;9.07;68.47;98700.73;233939;1203;138889;-62
2021/10/13 02:16:47;;;;;;;23.50;15.30;;;;;;;9.02;68.37;98705.63;234346;1203;139801;-62
2021/10/13 02:21:53;;;;;;;25.20;15.20;;;;;;;9.01;68.50;98708.91;234782;1204;138985;-68
2021/10/13 02:27:05;;;;;;;26.00;14.70;;;;;;;8.98;68.62;98713.68;234485;1203;141301;-64
2021/10/13 02:32:08;;;;;;;23.80;14.90;;;;;;;8.90;68.74;98718.55;234640;1204;138961;-64
2021/10/13 02:37:11;;;;;;;26.80;15.40;;;;;;;8.87;68.97;98724.95;234518;1204;138529;-62
2021/10/13 02:42:14;;;;;;;21.90;14.00;;;;;;;8.83;68.84;98727.88;234242;1204;138970;-64
2021/10/13 02:47:23;;;;;;;24.00;13.60;;;;;;;8.79;68.94;98733.73;234660;1203;139697;-64
2021/10/13 02:52:29;;;;;;;25.20;15.00;;;;;;;8.79;69.18;98736.94;234476;1204;139040;-64
2021/10/13 02:57:35;;;;;;;21.20;13.50;;;;;;;8.80;69.04;98737.92;234790;1203;139154;-63
2021/10/13 03:02:50;;;;;;;19.50;12.40;;;;;;;8.79;69.21;98741.16;234103;1203;138747;-69
2021/10/13 03:07:57;;;;;;;19.50;12.60;;;;;;;8.76;69.16;98745.58;234444;1203;138536;-62
2021/10/13 03:13:03;;;;;;;17.20;11.80;;;;;;;8.73;69.00;98754.27;234642;1203;139785;-67
2021/10/13 03:18:06;;;;;;;14.20;10.30;;;;;;;8.71;68.99;98760.39;234576;1203;139250;-62
2021/10/13 03:23:12;;;;;;;14.20;10.30;;;;;;;8.73;69.18;98768.39;234348;1205;138893;-63
2021/10/13 03:28:15;;;;;;;;;;;;;;;8.79;69.10;98768.23;234278;1203;139001;-61
2021/10/13 03:33:18;;;;;;;12.30;9.60;;;;;;;8.80;68.94;98772.77;234706;1204;124929;-63
2021/10/13 03:38:21;;;;;;;14.50;10.00;;;;;;;8.80;69.12;98778.27;234701;1204;138908;-66
2021/10/13 03:43:25;;;;;;;15.60;10.20;;;;;;;8.79;68.86;98782.23;233816;1203;139630;-65
2021/10/13 03:48:30;;;;;;;14.30;10.40;;;;;;;8.77;69.01;98791.52;234169;1204;138718;-63
2021/10/13 03:53:33;;;;;;;16.50;10.50;;;;;;;8.78;69.15;98795.71;234403;1196;139505;-63
2021/10/13 03:58:36;;;;;;;17.80;11.70;;;;;;;8.82;69.10;98800.27;234557;1203;139554;-64
2021/10/13 04:03:41;;;;;;;19.60;10.90;;;;;;;8.85;69.14;98806.08;234748;1204;139257;-62
2021/10/13 04:08:44;;;;;;;11.20;8.30;;;;;;;8.82;68.87;98808.58;234510;1204;138707;-61
2021/10/13 04:13:47;;;;;;;14.40;9.20;;;;;;;8.68;68.76;98810.40;234426;1203;138826;-61
2021/10/13 04:18:50;;;;;;;11.50;7.40;;;;;;;8.57;68.63;98816.73;234572;1204;139269;-61
2021/10/13 04:23:53;;;;;;;9.70;6.90;;;;;;;8.51;68.86;98821.66;234308;1204;139652;-61
2021/10/13 04:28:57;;;;;;;11.30;7.00;;;;;;;8.50;68.64;98830.06;234638;1204;138550;-64
2021/10/13 04:34:02;;;;;;;8.60;7.00;;;;;;;8.42;68.53;98846.05;234679;1203;138507;-59
2021/10/13 04:39:05;;;;;;;7.40;5.60;;;;;;;8.28;68.38;98851.91;234663;1204;138369;-58
2021/10/13 04:44:08;;;;;;;5.60;4.20;;;;;;;8.12;68.14;98854.59;234613;1203;138877;-60
2021/10/13 04:49:11;;;;;;;7.40;4.30;;;;;;;7.99;68.08;98848.91;234540;1204;140809;-64
2021/10/13 04:54:14;;;;;;;7.20;4.20;;;;;;;7.95;68.07;98850.01;233991;1204;140093;-61
2021/10/13 04:59:17;;;;;;;5.30;3.80;;;;;;;7.82;67.95;98853.75;234665;1203;140431;-60
2021/10/13 05:04:20;;;;;;;5.10;4.30;;;;;;;7.77;67.90;98862.27;234714;1204;138702;-62
2021/10/13 05:09:24;;;;;;;5.40;3.70;;;;;;;7.71;67.75;98871.46;234376;1204;138799;-66
2021/10/13 05:14:27;;;;;;;5.80;3.70;;;;;;;7.59;67.78;98878.96;234235;1204;137960;-65
2021/10/13 05:19:30;;;;;;;5.40;3.60;;;;;;;7.52;67.80;98880.58;234613;1203;140712;-62
2021/10/13 05:24:33;;;;;;;9.00;6.20;;;;;;;7.73;68.87;98894.98;234612;1204;139424;-61
2021/10/13 05:29:36;;;;;;;3.90;3.20;;;;;;;7.85;67.77;98909.05;234685;1204;139698;-61
2021/10/13 05:34:39;;;;;;;5.10;3.00;;;;;;;7.68;67.10;98916.31;234416;1203;139035;-63
2021/10/13 05:39:42;;;;;;;69.70;43.80;;;;;;;7.47;67.05;98928.34;234774;1203;141795;-63
2021/10/13 05:44:45;;;;;;;6.20;3.50;;;;;;;7.45;67.30;98934.59;234662;1203;138768;-63
2021/10/13 05:49:48;;;;;;;3.60;2.80;;;;;;;7.43;67.09;98944.96;234654;1204;139230;-63
2021/10/13 05:54:51;;;;;;;5.40;4.00;;;;;;;7.40;66.86;98962.56;234343;1204;138466;-62
2021/10/13 05:59:58;;;;;;;4.90;3.20;;;;;;;7.43;67.20;98967.55;234706;1203;138762;-63
2021/10/13 06:05:03;;;;;;;5.50;3.30;;;;;;;7.44;67.13;98976.69;234563;1204;138381;-64
2021/10/13 06:10:09;;;;;;;6.60;4.40;;;;;;;7.48;67.26;98991.30;234795;1203;151281;-62
2021/10/13 06:15:12;;;;;;;5.50;3.70;;;;;;;7.58;67.34;98998.74;234479;1204;138690;-65
2021/10/13 06:20:15;;;;;;;8.60;3.80;;;;;;;7.57;67.06;99007.06;234648;1204;138948;-65
2021/10/13 06:25:19;;;;;;;10.50;3.80;;;;;;;7.61;67.09;99015.16;234592;1204;138949;-61
2021/10/13 06:30:22;;;;;;;7.30;4.00;;;;;;;7.70;67.24;99025.30;234635;1204;138561;-63
2021/10/13 06:35:25;;;;;;;7.70;4.30;;;;;;;7.78;66.98;99031.98;234656;1203;138260;-60
2021/10/13 06:40:28;;;;;;;12.60;5.50;;;;;;;7.85;67.21;99034.30;234607;1203;138512;-59
2021/10/13 06:45:35;;;;;;;10.80;5.60;;;;;;;7.85;66.93;99039.23;234670;1203;138173;-60
2021/10/13 06:50:39;;;;;;;11.40;5.90;;;;;;;7.88;67.05;99042.41;234322;1204;138430;-61
2021/10/13 06:55:42;;;;;;;8.20;5.50;;;;;;;7.93;67.09;99044.83;234275;1204;138717;-58
2021/10/13 07:00:45;;;;;;;9.50;5.80;;;;;;;7.95;67.02;99045.77;234650;1203;138725;-61
2021/10/13 07:05:48;;;;;;;7.90;5.10;;;;;;;7.99;66.88;99049.81;234630;1203;138227;-61
2021/10/13 07:10:51;;;;;;;9.20;4.90;;;;;;;8.00;66.63;99051.86;234449;1204;139219;-60
2021/10/13 07:15:54;;;;;;;8.70;4.50;;;;;;;8.03;66.73;99057.55;234796;1204;138971;-61
2021/10/13 07:20:58;;;;;;;45.50;28.70;;;;;;;8.05;66.26;99074.03;234475;1204;138613;-64
2021/10/13 07:26:01;;;;;;;10.40;5.90;;;;;;;8.05;66.34;99084.48;234470;1204;139043;-60
2021/10/13 07:31:04;;;;;;;11.50;5.50;;;;;;;8.11;66.26;99090.89;234577;1204;140439;-61
2021/10/13 07:36:07;;;;;;;8.50;5.10;;;;;;;8.09;66.18;99095.77;234618;1204;138888;-61
2021/10/13 07:41:10;;;;;;;7.70;4.30;;;;;;;8.09;65.99;99101.61;234709;1203;138172;-60
2021/10/13 07:46:14;;;;;;;10.60;4.00;;;;;;;8.15;65.98;99096.70;234825;1203;138695;-59
2021/10/13 07:51:19;;;;;;;6.80;4.00;;;;;;;8.22;65.89;99097.38;234697;1204;138787;-60
2021/10/13 07:56:22;;;;;;;7.60;3.70;;;;;;;8.23;65.61;99098.58;234692;1203;139010;-59
2021/10/13 08:01:25;;;;;;;114.20;61.90;;;;;;;8.19;65.46;99096.10;234636;1204;139974;-57
2021/10/13 08:06:28;;;;;;;131.90;76.80;;;;;;;8.36;65.72;99094.39;234079;1203;139261;-59
2021/10/13 08:11:31;;;;;;;10.40;6.40;;;;;;;8.54;65.68;99096.48;234251;1203;138881;-61
2021/10/13 08:16:34;;;;;;;6.20;3.80;;;;;;;8.59;65.20;99103.27;234487;1204;138661;-59
2021/10/13 08:21:37;;;;;;;5.50;3.60;;;;;;;8.54;64.91;99105.48;234660;1204;138279;-58
2021/10/13 08:26:40;;;;;;;8.50;5.60;;;;;;;8.47;64.69;99108.46;234543;1203;138639;-62
2021/10/13 08:31:43;;;;;;;4.90;3.20;;;;;;;8.47;64.44;99109.37;234618;1204;138815;-60
2021/10/13 08:36:47;;;;;;;6.10;2.80;;;;;;;8.39;64.30;99109.95;233979;1204;137991;-61
2021/10/13 08:41:50;;;;;;;4.00;3.30;;;;;;;8.34;64.21;99107.54;234021;1204;138499;-65
2021/10/13 08:46:54;;;;;;;6.10;3.50;;;;;;;8.38;64.22;99108.09;234545;1204;138603;-64
2021/10/13 08:51:57;;;;;;;7.30;4.80;;;;;;;8.45;64.36;99107.17;234724;1204;138358;-65
2021/10/13 08:57:00;;;;;;;10.10;6.40;;;;;;;8.51;64.59;99112.16;234624;1204;138818;-64
2021/10/13 09:02:03;;;;;;;8.10;5.90;;;;;;;8.51;64.43;99115.20;234180;1204;140382;-61
2021/10/13 09:07:25;;;;;;;9.00;5.80;;;;;;;8.49;64.41;99117.95;234203;1204;138295;-64
2021/10/13 09:12:36;;;;;;;10.20;5.30;;;;;;;8.57;64.52;99116.84;234118;1205;139195;-63
2021/10/13 09:17:57;;;;;;;8.90;5.10;;;;;;;8.59;64.38;99121.65;234201;1204;138614;-62
2021/10/13 09:23:07;;;;;;;13.10;6.40;;;;;;;8.65;64.55;99120.29;234282;1204;138747;-65
2021/10/13 09:28:17;;;;;;;7.60;4.20;;;;;;;8.73;64.69;99124.99;234601;1204;138762;-59
2021/10/13 09:33:20;;;;;;;8.70;4.50;;;;;;;8.84;64.34;99129.53;234567;1204;139284;-64
2021/10/13 09:38:25;;;;;;;8.00;5.40;;;;;;;8.95;64.36;99134.05;234046;1204;138513;-65
2021/10/13 09:43:37;;;;;;;8.40;5.50;;;;;;;9.00;64.06;99136.98;234658;1203;139479;-63
2021/10/13 09:48:42;;;;;;;9.40;6.10;;;;;;;9.00;64.04;99137.15;234258;1203;138297;-60
2021/10/13 09:53:46;;;;;;;9.40;6.40;;;;;;;8.98;63.98;99136.93;234596;1204;138649;-64
2021/10/13 09:58:49;;;;;;;10.00;7.20;;;;;;;9.02;64.23;99137.43;234588;1204;138108;-61
2021/10/13 10:03:56;;;;;;;10.20;6.00;;;;;;;9.18;64.56;99138.48;234001;1203;138414;-62
2021/10/13 10:09:00;;;;;;;8.20;5.80;;;;;;;9.32;64.20;99137.17;233182;1204;138399;-63
2021/10/13 10:14:05;;;;;;;8.80;6.00;;;;;;;9.35;64.13;99134.90;234647;1204;138127;-62
2021/10/13 10:19:22;;;;;;;6.00;4.20;;;;;;;9.30;63.59;99141.21;234547;1203;151317;-61
2021/10/13 10:24:31;;;;;;;7.20;3.40;;;;;;;9.14;63.66;99145.75;234437;1203;139193;-63
2021/10/13 10:29:37;;;;;;;8.20;4.60;;;;;;;9.09;63.89;99144.80;234556;1203;138727;-61
2021/10/13 10:35:05;;;;;;;6.60;4.50;;;;;;;9.15;64.25;99142.71;234562;1204;138611;-62
2021/10/13 10:40:13;;;;;;;8.10;5.00;;;;;;;9.30;64.42;99134.09;234671;1203;138296;-62
2021/10/13 10:45:31;;;;;;;7.50;5.10;;;;;;;9.47;64.59;99136.67;234459;1204;139479;-63
2021/10/13 10:50:38;;;;;;;14.10;6.70;;;;;;;9.49;64.16;99151.84;234505;1204;138849;-62
2021/10/13 10:55:46;;;;;;;341.70;197.70;;;;;;;9.36;64.22;99156.27;234062;1203;138880;-63
2021/10/13 11:01:01;;;;;;;9.20;5.50;;;;;;;9.25;64.30;99157.36;234107;1204;138960;-62
2021/10/13 11:06:22;;;;;;;6.70;4.60;;;;;;;9.13;64.49;99156.29;233966;1204;140056;-62
2021/10/13 11:11:28;;;;;;;9.10;5.80;;;;;;;9.10;64.67;99158.02;234535;1204;138686;-64
2021/10/13 11:16:33;;;;;;;11.40;6.10;;;;;;;9.09;64.82;99168.53;234584;1204;138471;-64
2021/10/13 11:21:37;;;;;;;6.40;3.50;;;;;;;9.06;64.98;99169.95;234360;1203;138521;-64
2021/10/13 11:26:43;;;;;;;4.30;2.90;;;;;;;8.96;65.07;99170.98;234594;1204;139783;-62
2021/10/13 11:32:01;;;;;;;43.50;28.90;;;;;;;8.87;65.14;99166.88;234591;1204;138803;-63
2021/10/13 11:37:05;;;;;;;4.70;2.70;;;;;;;8.89;65.37;99166.59;233896;1204;150098;-62
2021/10/13 11:42:14;;;;;;;5.50;3.40;;;;;;;8.94;65.43;99167.36;233815;1203;139507;-60
2021/10/13 11:47:28;;;;;;;7.10;4.80;;;;;;;9.06;65.76;99166.91;234594;1204;138835;-65
2021/10/13 11:52:32;;;;;;;7.90;6.10;;;;;;;9.31;66.00;99159.55;233998;1204;138413;-62
2021/10/13 11:57:39;;;;;;;11.80;5.10;;;;;;;9.51;66.00;99160.38;234537;1190;139273;-62
2021/10/13 12:02:56;;;;;;;6.30;4.40;;;;;;;9.63;65.37;99156.90;234571;1204;138799;-60
2021/10/13 12:08:05;;;;;;;116.80;80.10;;;;;;;9.62;65.57;99154.25;234642;1203;138147;-60
2021/10/13 12:13:15;;;;;;;7.20;4.90;;;;;;;9.96;66.48;99154.81;233674;1204;139747;-61
2021/10/13 12:18:22;;;;;;;9.50;4.20;;;;;;;10.04;64.97;99153.48;234383;1202;138550;-59
2021/10/13 12:23:28;;;;;;;5.20;3.40;;;;;;;10.02;64.91;99156.44;234598;1203;138780;-60
2021/10/13 12:28:31;;;;;;;3.80;2.70;;;;;;;9.95;64.34;99164.08;234698;1204;138746;-59
2021/10/13 12:33:52;;;;;;;7.10;2.90;;;;;;;9.86;64.06;99158.39;234596;1204;138657;-60
2021/10/13 12:39:00;;;;;;;4.10;2.70;;;;;;;9.79;63.68;99161.67;234597;1203;138675;-59
2021/10/13 12:44:23;;;;;;;4.90;3.30;;;;;;;9.76;63.77;99159.54;234657;1204;139875;-59
2021/10/13 12:49:34;;;;;;;4.80;3.10;;;;;;;9.87;64.11;99158.58;234632;1204;138571;-64
2021/10/13 12:54:43;;;;;;;3.50;3.20;;;;;;;9.99;63.94;99167.92;234488;1203;138212;-61
2021/10/13 12:59:49;;;;;;;3.10;2.70;;;;;;;10.13;63.91;99173.33;234613;1203;138414;-61
2021/10/13 13:04:54;;;;;;;4.80;2.70;;;;;;;10.24;63.30;99175.70;234659;1203;138651;-60
2021/10/13 13:09:58;;;;;;;5.30;3.60;;;;;;;10.22;63.15;99175.86;234752;1204;140434;-61
2021/10/13 13:15:01;;;;;;;4.80;3.60;;;;;;;10.22;63.10;99175.13;234509;1203;138319;-63
2021/10/13 13:20:04;;;;;;;4.50;3.60;;;;;;;10.36;63.83;99177.00;234508;1204;138919;-60
2021/10/13 13:25:07;;;;;;;4.70;3.70;;;;;;;10.47;63.70;99178.64;234502;1203;138464;-60
2021/10/13 13:30:11;;;;;;;5.60;4.10;;;;;;;10.59;63.89;99182.89;234593;1204;139925;-60
2021/10/13 13:35:14;;;;;;;5.50;3.60;;;;;;;10.71;63.96;99187.30;234595;1204;139891;-61
2021/10/13 13:40:17;;;;;;;3.70;2.80;;;;;;;10.84;63.82;99187.28;234763;1204;138619;-60
2021/10/13 13:45:20;;;;;;;5.20;2.90;;;;;;;10.92;63.20;99191.92;234614;1204;138609;-60
2021/10/13 13:50:23;;;;;;;6.20;3.00;;;;;;;10.96;63.12;99194.30;234655;1204;138776;-61
2021/10/13 13:55:26;;;;;;;10.40;3.20;;;;;;;11.02;63.18;99199.96;234529;1205;139016;-61
2021/10/13 14:00:29;;;;;;;64.70;38.70;;;;;;;11.00;62.85;99201.33;234600;1204;138831;-61
2021/10/13 14:05:33;;;;;;;7.30;5.00;;;;;;;10.96;62.10;99207.64;234532;1203;139252;-60
2021/10/13 14:10:38;;;;;;;8.90;4.30;;;;;;;10.84;61.67;99209.27;234706;1204;138249;-61
2021/10/13 14:15:45;;;;;;;7.90;3.40;;;;;;;10.75;61.73;99215.48;234174;1203;138723;-60
2021/10/13 14:20:48;;;;;;;7.90;3.20;;;;;;;10.67;61.55;99223.77;234660;1203;140177;-62
2021/10/13 14:25:51;;;;;;;48.40;28.30;;;;;;;10.61;61.87;99232.10;233900;1203;138578;-62
2021/10/13 14:30:54;;;;;;;11.20;4.70;;;;;;;10.65;62.04;99238.05;234638;1203;138692;-62
2021/10/13 14:36:17;;;;;;;8.70;4.50;;;;;;;10.52;61.86;99245.39;234570;1204;138657;-61
2021/10/13 14:41:21;;;;;;;9.80;4.20;;;;;;;10.42;61.87;99252.38;234228;1204;138871;-63
2021/10/13 14:46:24;;;;;;;6.60;3.60;;;;;;;10.37;61.84;99257.98;234694;1203;139247;-63
2021/10/13 14:51:27;;;;;;;67.60;46.10;;;;;;;10.31;62.00;99270.04;234630;1203;138721;-61
2021/10/13 14:56:30;;;;;;;8.30;4.20;;;;;;;10.28;62.46;99270.57;234547;1204;138511;-63
2021/10/13 15:01:33;;;;;;;10.40;3.90;;;;;;;10.25;61.78;99274.25;234442;1204;139735;-64
2021/10/13 15:06:37;;;;;;;12.00;4.60;;;;;;;10.18;62.17;99273.41;234619;1203;140655;-61
2021/10/13 15:11:43;;;;;;;6.90;4.00;;;;;;;10.18;62.32;99280.10;234671;1204;138995;-63
2021/10/13 15:16:45;;;;;;;8.20;4.70;;;;;;;10.16;62.46;99285.57;234781;1203;138295;-62
2021/10/13 15:21:49;;;;;;;10.70;4.80;;;;;;;10.14;62.73;99292.03;234713;1203;138160;-62
2021/10/13 15:26:51;;;;;;;10.50;4.10;;;;;;;10.14;62.41;99303.94;233846;1206;140285;-60
2021/10/13 15:31:56;;;;;;;5.10;3.50;;;;;;;10.11;62.84;99323.23;234556;1204;138778;-63
2021/10/13 15:36:59;;;;;;;2.90;2.10;;;;;;;10.00;62.05;99328.83;234594;1204;138978;-63
2021/10/13 15:42:02;;;;;;;4.00;2.50;;;;;;;9.72;61.81;99328.75;234269;1204;138738;-62
2021/10/13 15:47:16;;;;;;;4.50;2.70;;;;;;;9.49;62.31;99329.83;234598;1204;139342;-61
2021/10/13 15:52:19;;;;;;;21.40;14.30;;;;;;;9.33;62.93;99327.13;234658;1204;138709;-63
2021/10/13 15:57:23;;;;;;;5.80;3.90;;;;;;;9.43;63.75;99335.06;234266;1204;138449;-62
2021/10/13 16:02:26;;;;;;;4.80;2.90;;;;;;;9.42;63.60;99337.95;234342;1204;138266;-62
2021/10/13 16:07:30;;;;;;;10.40;6.60;;;;;;;9.36;63.32;99337.73;234459;1204;139910;-60
2021/10/13 16:12:33;;;;;;;8.80;5.60;;;;;;;9.34;63.54;99345.14;234446;1203;140921;-63
2021/10/13 16:17:36;;;;;;;5.90;4.60;;;;;;;9.31;63.75;99352.73;234582;1204;138589;-60
2021/10/13 16:22:42;;;;;;;7.10;5.10;;;;;;;9.25;63.50;99355.33;234732;1204;138160;-64
2021/10/13 16:27:46;;;;;;;8.20;5.10;;;;;;;9.19;63.78;99365.34;233888;1203;139071;-63
2021/10/13 16:32:49;;;;;;;7.30;4.70;;;;;;;9.13;64.01;99372.76;233229;1204;140181;-63
2021/10/13 16:37:52;;;;;;;9.10;5.50;;;;;;;8.97;64.04;99375.48;234211;1204;138822;-62
2021/10/13 16:42:56;;;;;;;71.90;51.10;;;;;;;8.86;64.79;99387.56;234697;1204;138144;-63
2021/10/13 16:47:59;;;;;;;12.00;7.30;;;;;;;9.61;66.50;99390.66;234571;1204;139045;-62
2021/10/13 16:53:02;;;;;;;12.00;5.90;;;;;;;9.61;64.51;99391.02;234573;1204;139408;-60
2021/10/13 16:58:05;;;;;;;7.90;5.70;;;;;;;9.35;63.84;99399.80;234213;1203;138379;-61
2021/10/13 17:03:09;;;;;;;10.50;6.40;;;;;;;9.10;63.82;99400.17;233499;1204;138408;-64
2021/10/13 17:08:13;;;;;;;12.50;8.40;;;;;;;8.91;64.24;99403.40;234646;1203;138240;-62
2021/10/13 17:13:16;;;;;;;11.20;7.00;;;;;;;8.82;64.19;99408.45;234587;1204;138456;-60
2021/10/13 17:18:19;;;;;;;13.40;6.50;;;;;;;8.67;64.31;99411.67;234213;1204;138714;-65
2021/10/13 17:23:23;;;;;;;11.00;6.90;;;;;;;8.52;64.53;99412.02;234337;1204;138794;-62
2021/10/13 17:28:26;;;;;;;10.30;6.30;;;;;;;8.40;64.62;99418.59;234537;1204;138492;-60
2021/10/13 17:33:29;;;;;;;11.40;6.40;;;;;;;8.32;64.67;99420.19;234523;1204;139293;-62
2021/10/13 17:38:32;;;;;;;12.50;7.70;;;;;;;8.25;64.68;99428.80;233481;1204;138941;-63
2021/10/13 17:43:36;;;;;;;10.00;6.70;;;;;;;8.20;64.97;99429.91;234600;1204;138325;-64
2021/10/13 17:48:39;;;;;;;10.40;6.80;;;;;;;8.12;64.97;99436.69;234607;1203;138829;-61
2021/10/13 17:54:02;;;;;;;11.80;6.30;;;;;;;8.02;65.16;99442.56;234501;1204;138506;-61
2021/10/13 17:59:06;;;;;;;9.30;6.50;;;;;;;7.98;65.41;99453.91;234587;1204;140133;-63
2021/10/13 18:04:09;;;;;;;10.40;6.60;;;;;;;7.98;65.54;99458.51;234786;1204;138589;-62
2021/10/13 18:09:13;;;;;;;10.30;7.20;;;;;;;8.00;65.76;99464.41;234169;1203;138959;-64
2021/10/13 18:14:16;;;;;;;15.60;8.90;;;;;;;8.05;66.02;99468.58;234630;1204;138744;-63
2021/10/13 18:19:19;;;;;;;8.40;5.60;;;;;;;8.11;66.03;99475.60;234549;1204;139529;-63
2021/10/13 18:24:22;;;;;;;10.30;6.40;;;;;;;8.16;66.22;99484.39;234460;1204;139833;-62
2021/10/13 18:29:25;;;;;;;15.10;8.20;;;;;;;8.23;66.31;99485.65;234151;1204;139086;-63
2021/10/13 18:34:30;;;;;;;12.20;7.00;;;;;;;8.28;66.32;99494.96;234776;1204;138348;-63
2021/10/13 18:39:33;;;;;;;13.50;7.90;;;;;;;8.27;66.17;99495.52;234664;1203;139110;-61
2021/10/13 18:44:36;;;;;;;13.90;8.30;;;;;;;8.23;66.19;99498.17;234674;1204;138694;-61
2021/10/13 18:49:39;;;;;;;14.60;9.10;;;;;;;8.20;66.24;99500.27;234605;1204;138814;-60
2021/10/13 18:54:43;;;;;;;19.00;10.80;;;;;;;8.16;66.17;99503.84;234547;1203;138929;-62
2021/10/13 18:59:46;;;;;;;16.80;10.00;;;;;;;8.17;66.45;99507.46;234147;1204;139825;-62
2021/10/13 19:04:49;;;;;;;17.10;11.00;;;;;;;8.19;66.47;99511.65;234774;1204;139310;-61
2021/10/13 19:09:52;;;;;;;26.80;18.40;;;;;;;8.17;66.52;99511.54;234613;1204;138737;-61
2021/10/13 19:14:57;;;;;;;19.00;12.40;;;;;;;8.24;66.75;99514.93;234622;1204;139435;-64
2021/10/13 19:20:00;;;;;;;19.40;12.70;;;;;;;8.27;66.75;99514.95;234535;1204;138954;-64
2021/10/13 19:25:04;;;;;;;22.70;13.80;;;;;;;8.24;66.49;99519.19;234620;1204;139919;-61
2021/10/13 19:30:07;;;;;;;22.70;13.10;;;;;;;8.18;66.59;99519.80;234602;1204;138907;-64
2021/10/13 19:35:10;;;;;;;23.80;13.50;;;;;;;8.11;66.69;99520.48;234571;1204;139231;-61
2021/10/13 19:40:15;;;;;;;26.10;14.00;;;;;;;8.08;66.65;99525.38;234704;1204;139594;-60
2021/10/13 19:45:18;;;;;;;25.90;14.20;;;;;;;8.09;66.84;99530.98;234601;1204;140105;-65
2021/10/13 19:50:21;;;;;;;26.30;16.40;;;;;;;8.06;67.03;99536.60;234469;1204;139375;-59
2021/10/13 19:55:25;;;;;;;31.70;19.70;;;;;;;8.07;67.22;99533.17;234088;1204;138463;-59
2021/10/13 20:00:28;;;;;;;25.60;15.60;;;;;;;8.13;67.28;99535.42;234596;1204;139000;-59
2021/10/13 20:05:31;;;;;;;24.30;15.00;;;;;;;8.06;67.10;99542.06;234583;1204;139141;-60
2021/10/13 20:10:35;;;;;;;30.70;15.90;;;;;;;7.97;67.05;99545.09;234646;1203;139414;-62
2021/10/13 20:15:38;;;;;;;26.40;16.50;;;;;;;7.90;67.20;99543.64;234158;1204;138973;-61
2021/10/13 20:20:43;;;;;;;28.60;16.70;;;;;;;7.89;67.60;99549.52;233523;1204;138762;-61
2021/10/13 20:25:46;;;;;;;36.90;17.80;;;;;;;7.85;67.55;99555.37;234059;1204;139792;-64
2021/10/13 20:30:49;;;;;;;26.10;17.00;;;;;;;7.83;67.56;99557.73;234625;1203;139452;-61
2021/10/13 20:35:52;;;;;;;28.30;16.80;;;;;;;7.81;67.76;99563.30;234530;1204;139002;-60
2021/10/13 20:40:56;;;;;;;26.40;16.70;;;;;;;7.80;67.81;99564.38;234074;1204;140000;-59
2021/10/13 20:45:59;;;;;;;27.30;16.70;;;;;;;7.83;67.79;99565.85;234720;1205;138979;-59
2021/10/13 20:51:02;;;;;;;25.40;17.10;;;;;;;7.81;67.91;99563.27;234651;1203;138946;-61
2021/10/13 20:56:05;;;;;;;28.10;17.30;;;;;;;7.78;67.91;99561.11;234632;1204;139158;-59
2021/10/13 21:01:10;;;;;;;29.70;18.40;;;;;;;7.75;68.00;99557.73;234394;1204;138433;-63
2021/10/13 21:06:14;;;;;;;31.70;17.70;;;;;;;7.72;68.29;99561.73;234594;1196;139201;-61
2021/10/13 21:11:18;;;;;;;32.10;18.20;;;;;;;7.77;68.28;99561.70;234581;1203;140039;-65
2021/10/13 21:16:21;;;;;;;34.30;19.30;;;;;;;7.84;68.39;99558.92;234581;1204;139145;-60
2021/10/13 21:21:25;;;;;;;31.70;18.90;;;;;;;7.91;68.41;99562.51;234665;1203;138700;-62
2021/10/13 21:26:28;;;;;;;31.30;18.80;;;;;;;7.91;68.40;99560.59;234708;1203;139341;-65
2021/10/13 21:31:31;;;;;;;37.80;21.10;;;;;;;7.85;68.29;99561.16;234083;1203;138527;-61
2021/10/13 21:36:34;;;;;;;32.90;19.40;;;;;;;7.81;68.32;99561.35;234584;1204;138726;-60
2021/10/13 21:41:37;;;;;;;32.10;18.60;;;;;;;7.79;68.45;99558.75;234650;1204;139056;-61
2021/10/13 21:46:40;;;;;;;38.20;21.00;;;;;;;7.80;68.42;99555.92;234278;1204;139246;-58
2021/10/13 21:51:43;;;;;;;34.70;20.20;;;;;;;7.83;68.61;99553.83;234696;1203;138306;-61
2021/10/13 21:56:46;;;;;;;36.00;20.60;;;;;;;7.87;68.57;99551.72;234670;1203;138716;-60
2021/10/13 22:01:49;;;;;;;35.30;21.70;;;;;;;7.89;68.64;99554.14;234262;1203;141469;-61
2021/10/13 22:07:02;;;;;;;34.30;20.80;;;;;;;7.87;68.69;99556.48;233884;1204;138871;-63
2021/10/13 22:12:11;;;;;;;34.00;21.20;;;;;;;7.87;68.76;99555.98;233985;1204;140832;-57
2021/10/13 22:17:16;;;;;;;35.60;20.90;;;;;;;7.86;68.63;99561.69;233592;1204;139575;-61
2021/10/13 22:22:38;;;;;;;41.60;22.50;;;;;;;7.85;68.75;99563.83;233998;1205;139256;-60
2021/10/13 22:27:42;;;;;;;35.80;21.40;;;;;;;7.85;68.97;99565.58;234660;1204;138853;-58
2021/10/13 22:32:47;;;;;;;36.10;22.40;;;;;;;7.80;68.91;99565.28;234165;1205;139841;-61
2021/10/13 22:38:02;;;;;;;42.90;24.30;;;;;;;7.76;68.93;99567.38;233773;1204;139359;-58
2021/10/13 22:43:05;;;;;;;41.10;24.20;;;;;;;7.76;69.12;99570.71;234424;1203;138547;-62
2021/10/13 22:48:08;;;;;;;43.00;24.20;;;;;;;7.82;69.09;99571.73;234591;1203;141208;-59
2021/10/13 22:53:16;;;;;;;44.50;24.40;;;;;;;7.86;68.98;99571.72;234236;1203;138720;-56
2021/10/13 22:58:20;;;;;;;41.30;23.70;;;;;;;7.89;69.03;99568.46;234728;1204;140637;-61
2021/10/13 23:03:23;;;;;;;41.00;24.20;;;;;;;7.90;69.10;99572.64;234614;1204;140639;-61
2021/10/13 23:08:26;;;;;;;39.60;25.20;;;;;;;7.86;68.98;99574.57;234621;1204;139088;-60
2021/10/13 23:13:29;;;;;;;42.90;24.00;;;;;;;7.83;69.24;99573.81;234609;1203;139281;-60
2021/10/13 23:18:34;;;;;;;39.60;23.60;;;;;;;7.84;69.20;99577.98;234512;1203;139213;-58
2021/10/13 23:23:37;;;;;;;41.10;23.10;;;;;;;7.86;69.10;99581.83;234368;1204;140630;-59